sensor_id;sensor_type;location;lat;lon;timestamp;temperature;humidity
48454;DHT22;34261;55.678;12.464;2023-06-14T00:01:17;15.70;99.10
48454;DHT22;34261;55.678;12.464;2023-06-14T00:03:45;15.70;99.70
48454;DHT22;34261;55.678;12.464;2023-06-14T00:06:10;15.70;99.80
48454;DHT22;34261;55.678;12.464;2023-06-14T00:08:36;15.60;99.90
48454;DHT22;34261;55.678;12.464;2023-06-14T00:11:02;15.60;99.90
48454;DHT22;34261;55.678;12.464;2023-06-14T00:13:27;15.60;99.90
48454;DHT22;34261;55.678;12.464;2023-06-14T00:15:53;15.60;99.90
48454;DHT22;34261;55.678;12.464;2023-06-14T00:18:20;15.60;99.90
48454;DHT22;34261;55.678;12.464;2023-06-14T00:20:49;15.50;99.90
48454;DHT22;34261;55.678;12.464;2023-06-14T00:23:15;15.40;99.90
48454;DHT22;34261;55.678;12.464;2023-06-14T00:25:40;15.40;99.90
48454;DHT22;34261;55.678;12.464;2023-06-14T00:28:06;15.40;99.90
48454;DHT22;34261;55.678;12.464;2023-06-14T00:30:31;15.40;99.90
48454;DHT22;34261;55.678;12.464;2023-06-14T00:32:57;15.30;99.90
48454;DHT22;34261;55.678;12.464;2023-06-14T00:35:23;15.30;99.90
48454;DHT22;34261;55.678;12.464;2023-06-14T00:37:48;15.20;99.90
48454;DHT22;34261;55.678;12.464;2023-06-14T00:40:14;15.30;99.90
48454;DHT22;34261;55.678;12.464;2023-06-14T00:42:40;15.20;99.90
48454;DHT22;34261;55.678;12.464;2023-06-14T00:45:05;15.20;99.90
48454;DHT22;34261;55.678;12.464;2023-06-14T00:47:31;15.20;99.90
48454;DHT22;34261;55.678;12.464;2023-06-14T00:49:56;15.10;99.90
48454;DHT22;34261;55.678;12.464;2023-06-14T00:52:22;15.10;99.90
48454;DHT22;34261;55.678;12.464;2023-06-14T00:54:49;15.10;99.90
48454;DHT22;34261;55.678;12.464;2023-06-14T00:57:14;15.00;99.90
48454;DHT22;34261;55.678;12.464;2023-06-14T00:59:42;15.00;99.90
48454;DHT22;34261;55.678;12.464;2023-06-14T01:02:07;15.00;99.90
48454;DHT22;34261;55.678;12.464;2023-06-14T01:04:33;15.00;99.90
48454;DHT22;34261;55.678;12.464;2023-06-14T01:07:02;15.00;99.90
48454;DHT22;34261;55.678;12.464;2023-06-14T01:14:48;14.90;99.90
48454;DHT22;34261;55.678;12.464;2023-06-14T01:17:13;14.90;99.90
48454;DHT22;34261;55.678;12.464;2023-06-14T01:19:42;14.90;99.90
48454;DHT22;34261;55.678;12.464;2023-06-14T01:22:08;14.80;99.90
48454;DHT22;34261;55.678;12.464;2023-06-14T01:24:34;14.80;99.90
48454;DHT22;34261;55.678;12.464;2023-06-14T01:27:00;14.70;99.90
48454;DHT22;34261;55.678;12.464;2023-06-14T01:29:25;14.70;99.90
48454;DHT22;34261;55.678;12.464;2023-06-14T01:31:55;14.70;99.90
48454;DHT22;34261;55.678;12.464;2023-06-14T01:34:21;14.70;99.90
48454;DHT22;34261;55.678;12.464;2023-06-14T01:36:47;14.60;99.90
48454;DHT22;34261;55.678;12.464;2023-06-14T01:39:13;14.60;99.90
48454;DHT22;34261;55.678;12.464;2023-06-14T01:41:39;14.60;99.90
48454;DHT22;34261;55.678;12.464;2023-06-14T01:44:06;14.50;99.90
48454;DHT22;34261;55.678;12.464;2023-06-14T01:46:31;14.50;99.90
48454;DHT22;34261;55.678;12.464;2023-06-14T01:48:57;14.50;99.90
48454;DHT22;34261;55.678;12.464;2023-06-14T01:51:22;14.50;99.90
48454;DHT22;34261;55.678;12.464;2023-06-14T01:53:48;14.50;99.90
48454;DHT22;34261;55.678;12.464;2023-06-14T01:56:13;14.50;99.90
48454;DHT22;34261;55.678;12.464;2023-06-14T01:58:39;14.50;99.90
48454;DHT22;34261;55.678;12.464;2023-06-14T02:01:05;14.50;99.90
48454;DHT22;34261;55.678;12.464;2023-06-14T02:03:32;14.40;99.90
48454;DHT22;34261;55.678;12.464;2023-06-14T02:05:58;14.40;99.90
48454;DHT22;34261;55.678;12.464;2023-06-14T02:08:23;14.40;99.90
48454;DHT22;34261;55.678;12.464;2023-06-14T02:10:49;14.40;99.90
48454;DHT22;34261;55.678;12.464;2023-06-14T02:13:14;14.40;99.90
48454;DHT22;34261;55.678;12.464;2023-06-14T02:15:40;14.30;99.90
48454;DHT22;34261;55.678;12.464;2023-06-14T02:18:05;14.30;99.90
48454;DHT22;34261;55.678;12.464;2023-06-14T02:20:30;14.20;99.90
48454;DHT22;34261;55.678;12.464;2023-06-14T02:22:56;14.20;99.90
48454;DHT22;34261;55.678;12.464;2023-06-14T02:25:22;14.20;99.90
48454;DHT22;34261;55.678;12.464;2023-06-14T02:27:49;14.20;99.90
48454;DHT22;34261;55.678;12.464;2023-06-14T02:30:15;14.10;99.90
48454;DHT22;34261;55.678;12.464;2023-06-14T02:32:41;14.10;99.90
48454;DHT22;34261;55.678;12.464;2023-06-14T02:35:08;14.10;99.90
48454;DHT22;34261;55.678;12.464;2023-06-14T02:37:33;14.10;99.90
48454;DHT22;34261;55.678;12.464;2023-06-14T02:39:59;14.00;99.90
48454;DHT22;34261;55.678;12.464;2023-06-14T02:42:24;14.10;99.90
48454;DHT22;34261;55.678;12.464;2023-06-14T02:44:50;14.00;99.90
48454;DHT22;34261;55.678;12.464;2023-06-14T02:47:19;14.00;99.90
48454;DHT22;34261;55.678;12.464;2023-06-14T02:49:45;14.00;99.90
48454;DHT22;34261;55.678;12.464;2023-06-14T02:52:13;14.00;99.90
48454;DHT22;34261;55.678;12.464;2023-06-14T02:54:39;14.00;99.90
48454;DHT22;34261;55.678;12.464;2023-06-14T02:57:05;14.00;99.90
48454;DHT22;34261;55.678;12.464;2023-06-14T02:59:32;14.00;99.90
48454;DHT22;34261;55.678;12.464;2023-06-14T03:01:57;14.00;99.90
48454;DHT22;34261;55.678;12.464;2023-06-14T03:04:24;14.00;99.90
48454;DHT22;34261;55.678;12.464;2023-06-14T03:06:51;14.00;99.90
48454;DHT22;34261;55.678;12.464;2023-06-14T03:09:16;14.00;99.90
48454;DHT22;34261;55.678;12.464;2023-06-14T03:11:42;14.10;99.90
48454;DHT22;34261;55.678;12.464;2023-06-14T03:14:07;14.10;99.90
48454;DHT22;34261;55.678;12.464;2023-06-14T03:16:33;14.00;99.90
48454;DHT22;34261;55.678;12.464;2023-06-14T03:18:59;14.10;99.90
48454;DHT22;34261;55.678;12.464;2023-06-14T03:21:24;14.20;99.90
48454;DHT22;34261;55.678;12.464;2023-06-14T03:23:51;14.20;99.90
48454;DHT22;34261;55.678;12.464;2023-06-14T03:26:18;14.20;99.90
48454;DHT22;34261;55.678;12.464;2023-06-14T03:28:46;14.30;99.90
48454;DHT22;34261;55.678;12.464;2023-06-14T03:31:12;14.30;99.90
48454;DHT22;34261;55.678;12.464;2023-06-14T03:33:38;14.40;99.90
48454;DHT22;34261;55.678;12.464;2023-06-14T03:36:04;14.40;99.90
48454;DHT22;34261;55.678;12.464;2023-06-14T03:38:30;14.50;99.90
48454;DHT22;34261;55.678;12.464;2023-06-14T03:40:55;14.50;99.90
48454;DHT22;34261;55.678;12.464;2023-06-14T03:43:21;14.60;99.90
48454;DHT22;34261;55.678;12.464;2023-06-14T03:45:46;14.60;99.90
48454;DHT22;34261;55.678;12.464;2023-06-14T03:48:12;14.70;99.90
48454;DHT22;34261;55.678;12.464;2023-06-14T03:50:37;14.70;99.90
48454;DHT22;34261;55.678;12.464;2023-06-14T03:53:03;14.80;99.90
48454;DHT22;34261;55.678;12.464;2023-06-14T03:55:29;14.90;99.90
48454;DHT22;34261;55.678;12.464;2023-06-14T03:57:56;15.00;99.90
48454;DHT22;34261;55.678;12.464;2023-06-14T04:00:22;15.00;99.90
48454;DHT22;34261;55.678;12.464;2023-06-14T04:02:47;15.10;99.90
48454;DHT22;34261;55.678;12.464;2023-06-14T04:05:13;15.20;99.90
48454;DHT22;34261;55.678;12.464;2023-06-14T04:07:38;15.30;99.90
48454;DHT22;34261;55.678;12.464;2023-06-14T04:10:13;15.40;99.90
48454;DHT22;34261;55.678;12.464;2023-06-14T04:12:39;15.50;99.90
48454;DHT22;34261;55.678;12.464;2023-06-14T04:15:04;15.50;99.90
48454;DHT22;34261;55.678;12.464;2023-06-14T04:17:34;15.60;99.90
48454;DHT22;34261;55.678;12.464;2023-06-14T04:19:59;15.70;99.90
48454;DHT22;34261;55.678;12.464;2023-06-14T04:22:25;15.70;99.90
48454;DHT22;34261;55.678;12.464;2023-06-14T04:24:54;15.80;99.90
48454;DHT22;34261;55.678;12.464;2023-06-14T04:27:25;15.90;99.90
48454;DHT22;34261;55.678;12.464;2023-06-14T04:29:54;16.00;99.90
48454;DHT22;34261;55.678;12.464;2023-06-14T04:32:25;16.10;99.90
48454;DHT22;34261;55.678;12.464;2023-06-14T04:34:54;16.30;99.90
48454;DHT22;34261;55.678;12.464;2023-06-14T04:37:23;16.30;99.90
48454;DHT22;34261;55.678;12.464;2023-06-14T04:39:48;16.50;99.90
48454;DHT22;34261;55.678;12.464;2023-06-14T04:42:14;16.60;99.90
48454;DHT22;34261;55.678;12.464;2023-06-14T04:44:43;16.70;99.90
48454;DHT22;34261;55.678;12.464;2023-06-14T04:47:09;16.80;99.90
48454;DHT22;34261;55.678;12.464;2023-06-14T04:49:34;17.00;99.90
48454;DHT22;34261;55.678;12.464;2023-06-14T04:52:00;17.10;99.90
48454;DHT22;34261;55.678;12.464;2023-06-14T04:54:27;17.20;99.90
48454;DHT22;34261;55.678;12.464;2023-06-14T04:56:52;17.30;99.90
48454;DHT22;34261;55.678;12.464;2023-06-14T04:59:20;17.40;99.90
48454;DHT22;34261;55.678;12.464;2023-06-14T05:01:48;17.60;99.90
48454;DHT22;34261;55.678;12.464;2023-06-14T05:04:14;17.70;98.70
48454;DHT22;34261;55.678;12.464;2023-06-14T05:06:41;17.70;98.30
48454;DHT22;34261;55.678;12.464;2023-06-14T05:09:06;17.80;97.10
48454;DHT22;34261;55.678;12.464;2023-06-14T05:11:32;17.90;95.90
48454;DHT22;34261;55.678;12.464;2023-06-14T05:13:57;18.00;95.50
48454;DHT22;34261;55.678;12.464;2023-06-14T05:16:23;18.10;94.20
48454;DHT22;34261;55.678;12.464;2023-06-14T05:18:50;18.30;94.30
48454;DHT22;34261;55.678;12.464;2023-06-14T05:21:17;18.40;93.90
48454;DHT22;34261;55.678;12.464;2023-06-14T05:23:43;18.50;93.30
48454;DHT22;34261;55.678;12.464;2023-06-14T05:26:10;18.50;92.70
48454;DHT22;34261;55.678;12.464;2023-06-14T05:28:35;18.60;92.20
48454;DHT22;34261;55.678;12.464;2023-06-14T05:31:01;18.80;92.00
48454;DHT22;34261;55.678;12.464;2023-06-14T05:33:26;18.80;91.70
48454;DHT22;34261;55.678;12.464;2023-06-14T05:35:52;18.90;91.20
48454;DHT22;34261;55.678;12.464;2023-06-14T05:38:17;19.00;91.20
48454;DHT22;34261;55.678;12.464;2023-06-14T05:40:43;19.10;90.90
48454;DHT22;34261;55.678;12.464;2023-06-14T05:43:08;19.20;90.80
48454;DHT22;34261;55.678;12.464;2023-06-14T05:45:33;19.20;90.10
48454;DHT22;34261;55.678;12.464;2023-06-14T05:47:59;19.30;89.40
48454;DHT22;34261;55.678;12.464;2023-06-14T05:50:24;19.40;89.30
48454;DHT22;34261;55.678;12.464;2023-06-14T05:52:50;19.40;87.80
48454;DHT22;34261;55.678;12.464;2023-06-14T05:55:16;19.50;88.40
48454;DHT22;34261;55.678;12.464;2023-06-14T05:57:41;19.60;87.40
48454;DHT22;34261;55.678;12.464;2023-06-14T06:00:07;19.70;88.20
48454;DHT22;34261;55.678;12.464;2023-06-14T06:02:36;19.80;87.20
48454;DHT22;34261;55.678;12.464;2023-06-14T06:05:02;19.90;86.40
48454;DHT22;34261;55.678;12.464;2023-06-14T06:07:27;19.90;85.40
48454;DHT22;34261;55.678;12.464;2023-06-14T06:09:53;20.00;84.80
48454;DHT22;34261;55.678;12.464;2023-06-14T06:12:18;20.10;86.50
48454;DHT22;34261;55.678;12.464;2023-06-14T06:14:44;20.20;84.80
48454;DHT22;34261;55.678;12.464;2023-06-14T06:17:09;20.20;84.30
48454;DHT22;34261;55.678;12.464;2023-06-14T06:19:35;20.30;84.60
48454;DHT22;34261;55.678;12.464;2023-06-14T06:22:00;20.40;83.40
48454;DHT22;34261;55.678;12.464;2023-06-14T06:24:25;20.40;82.40
48454;DHT22;34261;55.678;12.464;2023-06-14T06:26:51;20.50;81.00
48454;DHT22;34261;55.678;12.464;2023-06-14T06:29:16;20.50;81.50
48454;DHT22;34261;55.678;12.464;2023-06-14T06:31:42;20.60;81.40
48454;DHT22;34261;55.678;12.464;2023-06-14T06:34:07;20.70;82.90
48454;DHT22;34261;55.678;12.464;2023-06-14T06:36:33;20.80;81.90
48454;DHT22;34261;55.678;12.464;2023-06-14T06:38:58;20.80;81.70
48454;DHT22;34261;55.678;12.464;2023-06-14T06:41:24;20.90;81.10
48454;DHT22;34261;55.678;12.464;2023-06-14T06:43:49;20.90;80.40
48454;DHT22;34261;55.678;12.464;2023-06-14T06:46:15;21.00;79.90
48454;DHT22;34261;55.678;12.464;2023-06-14T06:48:40;21.20;79.00
48454;DHT22;34261;55.678;12.464;2023-06-14T06:51:06;21.20;78.40
48454;DHT22;34261;55.678;12.464;2023-06-14T06:53:31;21.30;77.20
48454;DHT22;34261;55.678;12.464;2023-06-14T06:55:57;21.30;78.00
48454;DHT22;34261;55.678;12.464;2023-06-14T06:58:23;21.30;77.40
48454;DHT22;34261;55.678;12.464;2023-06-14T07:00:48;21.40;77.60
48454;DHT22;34261;55.678;12.464;2023-06-14T07:03:14;21.50;76.60
48454;DHT22;34261;55.678;12.464;2023-06-14T07:05:39;21.70;77.00
48454;DHT22;34261;55.678;12.464;2023-06-14T07:08:05;21.80;76.50
48454;DHT22;34261;55.678;12.464;2023-06-14T07:10:30;21.80;75.10
48454;DHT22;34261;55.678;12.464;2023-06-14T07:12:56;22.00;75.40
48454;DHT22;34261;55.678;12.464;2023-06-14T07:15:21;22.00;74.50
48454;DHT22;34261;55.678;12.464;2023-06-14T07:17:47;22.10;73.90
48454;DHT22;34261;55.678;12.464;2023-06-14T07:20:13;22.20;76.40
48454;DHT22;34261;55.678;12.464;2023-06-14T07:22:39;22.30;74.60
48454;DHT22;34261;55.678;12.464;2023-06-14T07:25:06;22.40;73.80
48454;DHT22;34261;55.678;12.464;2023-06-14T07:27:31;22.40;75.30
48454;DHT22;34261;55.678;12.464;2023-06-14T07:29:57;22.60;76.10
48454;DHT22;34261;55.678;12.464;2023-06-14T07:32:22;22.60;74.30
48454;DHT22;34261;55.678;12.464;2023-06-14T07:34:48;22.70;74.20
48454;DHT22;34261;55.678;12.464;2023-06-14T07:37:13;22.80;74.00
48454;DHT22;34261;55.678;12.464;2023-06-14T07:39:38;22.90;75.10
48454;DHT22;34261;55.678;12.464;2023-06-14T07:42:04;23.00;73.20
48454;DHT22;34261;55.678;12.464;2023-06-14T07:44:30;23.00;73.50
48454;DHT22;34261;55.678;12.464;2023-06-14T07:46:58;23.20;73.70
48454;DHT22;34261;55.678;12.464;2023-06-14T07:49:25;23.30;72.90
48454;DHT22;34261;55.678;12.464;2023-06-14T07:51:51;23.40;72.80
48454;DHT22;34261;55.678;12.464;2023-06-14T07:54:16;23.50;75.00
48454;DHT22;34261;55.678;12.464;2023-06-14T07:56:42;23.60;72.20
48454;DHT22;34261;55.678;12.464;2023-06-14T07:59:08;23.60;70.90
48454;DHT22;34261;55.678;12.464;2023-06-14T08:01:33;23.60;69.80
48454;DHT22;34261;55.678;12.464;2023-06-14T08:03:59;23.40;69.20
48454;DHT22;34261;55.678;12.464;2023-06-14T08:06:24;23.40;70.70
48454;DHT22;34261;55.678;12.464;2023-06-14T08:08:50;23.40;68.40
48454;DHT22;34261;55.678;12.464;2023-06-14T08:11:15;23.40;69.20
48454;DHT22;34261;55.678;12.464;2023-06-14T08:13:41;23.60;69.20
48454;DHT22;34261;55.678;12.464;2023-06-14T08:16:06;23.80;68.80
48454;DHT22;34261;55.678;12.464;2023-06-14T08:18:32;23.90;67.60
48454;DHT22;34261;55.678;12.464;2023-06-14T08:20:57;24.00;66.80
48454;DHT22;34261;55.678;12.464;2023-06-14T08:23:23;24.10;67.90
48454;DHT22;34261;55.678;12.464;2023-06-14T08:25:48;24.30;67.40
48454;DHT22;34261;55.678;12.464;2023-06-14T08:28:14;24.40;67.40
48454;DHT22;34261;55.678;12.464;2023-06-14T08:30:39;24.60;66.10
48454;DHT22;34261;55.678;12.464;2023-06-14T08:33:05;24.70;64.70
48454;DHT22;34261;55.678;12.464;2023-06-14T08:35:30;24.80;64.40
48454;DHT22;34261;55.678;12.464;2023-06-14T08:37:55;24.90;64.70
48454;DHT22;34261;55.678;12.464;2023-06-14T08:40:22;25.00;64.20
48454;DHT22;34261;55.678;12.464;2023-06-14T08:42:50;25.10;65.10
48454;DHT22;34261;55.678;12.464;2023-06-14T08:45:16;25.20;64.20
48454;DHT22;34261;55.678;12.464;2023-06-14T08:47:41;25.20;63.90
48454;DHT22;34261;55.678;12.464;2023-06-14T08:50:07;25.30;64.00
48454;DHT22;34261;55.678;12.464;2023-06-14T08:52:35;25.50;64.40
48454;DHT22;34261;55.678;12.464;2023-06-14T08:55:06;25.70;66.20
48454;DHT22;34261;55.678;12.464;2023-06-14T08:57:31;25.70;62.90
48454;DHT22;34261;55.678;12.464;2023-06-14T08:59:58;25.80;62.10
48454;DHT22;34261;55.678;12.464;2023-06-14T09:02:26;25.90;63.40
48454;DHT22;34261;55.678;12.464;2023-06-14T09:04:52;26.10;62.50
48454;DHT22;34261;55.678;12.464;2023-06-14T09:07:17;26.10;62.00
48454;DHT22;34261;55.678;12.464;2023-06-14T09:09:43;26.20;62.40
48454;DHT22;34261;55.678;12.464;2023-06-14T09:12:10;26.30;62.70
48454;DHT22;34261;55.678;12.464;2023-06-14T09:14:36;26.50;65.40
48454;DHT22;34261;55.678;12.464;2023-06-14T09:17:04;26.60;61.60
48454;DHT22;34261;55.678;12.464;2023-06-14T09:19:29;26.70;60.70
48454;DHT22;34261;55.678;12.464;2023-06-14T09:21:55;26.70;60.70
48454;DHT22;34261;55.678;12.464;2023-06-14T09:24:20;26.80;61.10
48454;DHT22;34261;55.678;12.464;2023-06-14T09:26:52;27.00;61.10
48454;DHT22;34261;55.678;12.464;2023-06-14T09:29:18;26.90;61.00
48454;DHT22;34261;55.678;12.464;2023-06-14T09:31:46;27.00;61.20
48454;DHT22;34261;55.678;12.464;2023-06-14T09:34:11;27.00;61.10
48454;DHT22;34261;55.678;12.464;2023-06-14T09:36:37;26.90;60.70
48454;DHT22;34261;55.678;12.464;2023-06-14T09:39:04;26.80;60.20
48454;DHT22;34261;55.678;12.464;2023-06-14T09:41:35;26.80;60.50
48454;DHT22;34261;55.678;12.464;2023-06-14T09:44:01;26.90;60.20
48454;DHT22;34261;55.678;12.464;2023-06-14T09:46:28;27.10;61.80
48454;DHT22;34261;55.678;12.464;2023-06-14T09:48:54;27.40;62.30
48454;DHT22;34261;55.678;12.464;2023-06-14T09:51:20;27.70;60.90
48454;DHT22;34261;55.678;12.464;2023-06-14T09:53:48;27.90;60.00
48454;DHT22;34261;55.678;12.464;2023-06-14T09:56:15;27.90;60.10
48454;DHT22;34261;55.678;12.464;2023-06-14T09:58:41;28.10;60.40
48454;DHT22;34261;55.678;12.464;2023-06-14T10:01:06;28.10;60.50
48454;DHT22;34261;55.678;12.464;2023-06-14T10:03:33;28.30;61.90
48454;DHT22;34261;55.678;12.464;2023-06-14T10:05:59;28.40;60.40
48454;DHT22;34261;55.678;12.464;2023-06-14T10:08:27;28.50;59.50
48454;DHT22;34261;55.678;12.464;2023-06-14T10:10:55;28.40;59.00
48454;DHT22;34261;55.678;12.464;2023-06-14T10:13:21;28.30;59.70
48454;DHT22;34261;55.678;12.464;2023-06-14T10:18:18;28.70;60.00
48454;DHT22;34261;55.678;12.464;2023-06-14T10:23:30;29.00;59.10
48454;DHT22;34261;55.678;12.464;2023-06-14T10:25:57;29.10;58.70
48454;DHT22;34261;55.678;12.464;2023-06-14T10:28:23;29.10;59.10
48454;DHT22;34261;55.678;12.464;2023-06-14T10:33:31;29.40;59.20
48454;DHT22;34261;55.678;12.464;2023-06-14T10:36:09;29.60;60.30
48454;DHT22;34261;55.678;12.464;2023-06-14T10:38:36;29.80;60.50
48454;DHT22;34261;55.678;12.464;2023-06-14T10:41:01;29.90;58.50
48454;DHT22;34261;55.678;12.464;2023-06-14T10:43:27;30.10;59.30
48454;DHT22;34261;55.678;12.464;2023-06-14T10:48:40;30.30;57.80
48454;DHT22;34261;55.678;12.464;2023-06-14T10:51:06;30.30;57.80
48454;DHT22;34261;55.678;12.464;2023-06-14T10:53:40;30.30;57.60
48454;DHT22;34261;55.678;12.464;2023-06-14T10:56:08;30.40;58.50
48454;DHT22;34261;55.678;12.464;2023-06-14T10:58:34;30.30;57.80
48454;DHT22;34261;55.678;12.464;2023-06-14T11:00:59;30.30;56.60
48454;DHT22;34261;55.678;12.464;2023-06-14T11:03:36;30.40;58.00
48454;DHT22;34261;55.678;12.464;2023-06-14T11:06:14;30.60;56.40
48454;DHT22;34261;55.678;12.464;2023-06-14T11:11:22;31.00;57.30
48454;DHT22;34261;55.678;12.464;2023-06-14T11:13:48;31.20;56.00
48454;DHT22;34261;55.678;12.464;2023-06-14T11:16:14;31.20;55.60
48454;DHT22;34261;55.678;12.464;2023-06-14T11:18:40;31.20;55.80
48454;DHT22;34261;55.678;12.464;2023-06-14T11:21:06;31.50;56.30
48454;DHT22;34261;55.678;12.464;2023-06-14T11:23:31;31.50;56.00
48454;DHT22;34261;55.678;12.464;2023-06-14T11:25:57;31.50;55.50
48454;DHT22;34261;55.678;12.464;2023-06-14T11:28:22;31.60;56.70
48454;DHT22;34261;55.678;12.464;2023-06-14T11:30:49;31.70;56.60
48454;DHT22;34261;55.678;12.464;2023-06-14T11:33:24;31.80;55.60
48454;DHT22;34261;55.678;12.464;2023-06-14T11:35:50;31.80;54.30
48454;DHT22;34261;55.678;12.464;2023-06-14T11:38:16;32.00;55.10
48454;DHT22;34261;55.678;12.464;2023-06-14T11:40:41;31.90;54.40
48454;DHT22;34261;55.678;12.464;2023-06-14T11:43:07;31.90;55.50
48454;DHT22;34261;55.678;12.464;2023-06-14T11:45:32;31.70;54.80
48454;DHT22;34261;55.678;12.464;2023-06-14T11:47:58;31.80;55.60
48454;DHT22;34261;55.678;12.464;2023-06-14T11:50:24;31.70;53.90
48454;DHT22;34261;55.678;12.464;2023-06-14T11:52:53;31.50;55.40
48454;DHT22;34261;55.678;12.464;2023-06-14T11:55:20;31.60;54.50
48454;DHT22;34261;55.678;12.464;2023-06-14T11:57:46;31.70;55.20
48454;DHT22;34261;55.678;12.464;2023-06-14T12:00:11;31.90;54.80
48454;DHT22;34261;55.678;12.464;2023-06-14T12:02:37;31.90;55.10
48454;DHT22;34261;55.678;12.464;2023-06-14T12:05:04;32.20;55.30
48454;DHT22;34261;55.678;12.464;2023-06-14T12:07:31;32.40;55.10
48454;DHT22;34261;55.678;12.464;2023-06-14T12:12:22;32.20;53.70
48454;DHT22;34261;55.678;12.464;2023-06-14T12:14:47;32.10;53.00
48454;DHT22;34261;55.678;12.464;2023-06-14T12:17:13;31.80;56.00
48454;DHT22;34261;55.678;12.464;2023-06-14T12:19:42;32.10;56.20
48454;DHT22;34261;55.678;12.464;2023-06-14T12:22:15;32.20;53.80
48454;DHT22;34261;55.678;12.464;2023-06-14T12:24:43;32.40;54.70
48454;DHT22;34261;55.678;12.464;2023-06-14T12:27:09;32.60;54.90
48454;DHT22;34261;55.678;12.464;2023-06-14T12:29:37;32.90;53.90
48454;DHT22;34261;55.678;12.464;2023-06-14T12:32:02;33.20;55.40
48454;DHT22;34261;55.678;12.464;2023-06-14T12:34:28;33.30;52.70
48454;DHT22;34261;55.678;12.464;2023-06-14T12:36:53;33.50;54.80
48454;DHT22;34261;55.678;12.464;2023-06-14T12:39:19;33.50;52.20
48454;DHT22;34261;55.678;12.464;2023-06-14T12:41:45;33.30;51.60
48454;DHT22;34261;55.678;12.464;2023-06-14T12:44:11;32.90;50.50
48454;DHT22;34261;55.678;12.464;2023-06-14T12:46:36;33.00;53.70
48454;DHT22;34261;55.678;12.464;2023-06-14T12:49:02;33.00;51.30
48454;DHT22;34261;55.678;12.464;2023-06-14T12:51:27;33.00;50.80
48454;DHT22;34261;55.678;12.464;2023-06-14T12:53:53;33.10;54.40
48454;DHT22;34261;55.678;12.464;2023-06-14T12:56:19;33.40;52.40
48454;DHT22;34261;55.678;12.464;2023-06-14T12:58:45;33.60;51.90
48454;DHT22;34261;55.678;12.464;2023-06-14T13:01:10;33.80;53.50
48454;DHT22;34261;55.678;12.464;2023-06-14T13:03:36;34.10;51.20
48454;DHT22;34261;55.678;12.464;2023-06-14T13:06:01;33.90;49.60
48454;DHT22;34261;55.678;12.464;2023-06-14T13:08:28;33.80;49.60
48454;DHT22;34261;55.678;12.464;2023-06-14T13:10:53;34.00;51.20
48454;DHT22;34261;55.678;12.464;2023-06-14T13:13:19;34.20;50.80
48454;DHT22;34261;55.678;12.464;2023-06-14T13:15:44;34.20;50.20
48454;DHT22;34261;55.678;12.464;2023-06-14T13:18:11;34.30;52.10
48454;DHT22;34261;55.678;12.464;2023-06-14T13:20:38;34.40;49.30
48454;DHT22;34261;55.678;12.464;2023-06-14T13:23:04;34.50;50.60
48454;DHT22;34261;55.678;12.464;2023-06-14T13:25:31;34.60;50.90
48454;DHT22;34261;55.678;12.464;2023-06-14T13:27:57;34.60;50.50
48454;DHT22;34261;55.678;12.464;2023-06-14T13:30:22;34.40;50.50
48454;DHT22;34261;55.678;12.464;2023-06-14T13:32:48;34.10;50.70
48454;DHT22;34261;55.678;12.464;2023-06-14T13:35:13;34.00;50.50
48454;DHT22;34261;55.678;12.464;2023-06-14T13:37:38;34.00;50.90
48454;DHT22;34261;55.678;12.464;2023-06-14T13:40:04;34.10;51.90
48454;DHT22;34261;55.678;12.464;2023-06-14T13:42:30;34.00;52.00
48454;DHT22;34261;55.678;12.464;2023-06-14T13:44:57;34.10;51.50
48454;DHT22;34261;55.678;12.464;2023-06-14T13:47:23;34.20;52.70
48454;DHT22;34261;55.678;12.464;2023-06-14T13:49:48;34.40;50.50
48454;DHT22;34261;55.678;12.464;2023-06-14T13:52:14;34.40;51.10
48454;DHT22;34261;55.678;12.464;2023-06-14T13:54:39;34.40;51.40
48454;DHT22;34261;55.678;12.464;2023-06-14T13:57:05;34.60;51.60
48454;DHT22;34261;55.678;12.464;2023-06-14T13:59:30;34.70;52.00
48454;DHT22;34261;55.678;12.464;2023-06-14T14:01:56;34.80;51.00
48454;DHT22;34261;55.678;12.464;2023-06-14T14:04:21;35.10;52.70
48454;DHT22;34261;55.678;12.464;2023-06-14T14:06:47;35.30;51.60
48454;DHT22;34261;55.678;12.464;2023-06-14T14:09:12;35.20;50.40
48454;DHT22;34261;55.678;12.464;2023-06-14T14:11:38;34.90;50.60
48454;DHT22;34261;55.678;12.464;2023-06-14T14:14:05;35.00;51.30
48454;DHT22;34261;55.678;12.464;2023-06-14T14:16:30;35.00;51.10
48454;DHT22;34261;55.678;12.464;2023-06-14T14:18:56;35.10;50.70
48454;DHT22;34261;55.678;12.464;2023-06-14T14:21:21;35.10;51.60
48454;DHT22;34261;55.678;12.464;2023-06-14T14:23:46;35.20;50.80
48454;DHT22;34261;55.678;12.464;2023-06-14T14:26:12;35.10;50.70
48454;DHT22;34261;55.678;12.464;2023-06-14T14:28:37;34.80;50.10
48454;DHT22;34261;55.678;12.464;2023-06-14T14:31:03;34.40;50.40
48454;DHT22;34261;55.678;12.464;2023-06-14T14:33:30;34.10;50.50
48454;DHT22;34261;55.678;12.464;2023-06-14T14:35:55;34.10;50.90
48454;DHT22;34261;55.678;12.464;2023-06-14T14:38:21;34.10;50.50
48454;DHT22;34261;55.678;12.464;2023-06-14T14:40:47;34.20;51.90
48454;DHT22;34261;55.678;12.464;2023-06-14T14:43:12;34.40;50.10
48454;DHT22;34261;55.678;12.464;2023-06-14T14:45:37;34.30;50.10
48454;DHT22;34261;55.678;12.464;2023-06-14T14:48:03;34.20;50.20
48454;DHT22;34261;55.678;12.464;2023-06-14T14:50:28;34.00;50.50
48454;DHT22;34261;55.678;12.464;2023-06-14T14:52:54;33.90;50.40
48454;DHT22;34261;55.678;12.464;2023-06-14T14:55:20;34.00;51.70
48454;DHT22;34261;55.678;12.464;2023-06-14T14:57:46;34.10;50.50
48454;DHT22;34261;55.678;12.464;2023-06-14T15:00:13;34.20;52.30
48454;DHT22;34261;55.678;12.464;2023-06-14T15:02:38;34.30;50.60
48454;DHT22;34261;55.678;12.464;2023-06-14T15:05:04;34.30;52.30
48454;DHT22;34261;55.678;12.464;2023-06-14T15:07:30;33.80;52.40
48454;DHT22;34261;55.678;12.464;2023-06-14T15:09:56;33.40;53.30
48454;DHT22;34261;55.678;12.464;2023-06-14T15:12:22;32.90;52.80
48454;DHT22;34261;55.678;12.464;2023-06-14T15:14:51;32.60;53.20
48454;DHT22;34261;55.678;12.464;2023-06-14T15:17:17;32.00;54.70
48454;DHT22;34261;55.678;12.464;2023-06-14T15:19:43;31.40;55.30
48454;DHT22;34261;55.678;12.464;2023-06-14T15:22:09;31.00;55.40
48454;DHT22;34261;55.678;12.464;2023-06-14T15:24:34;31.00;55.70
48454;DHT22;34261;55.678;12.464;2023-06-14T15:27:00;30.90;56.00
48454;DHT22;34261;55.678;12.464;2023-06-14T15:29:25;30.60;55.20